sensor_id;sensor_type;location;lat;lon;timestamp;pressure;altitude;pressure_sealevel;temperature;humidity
52249;BME280;38541;48.130;8.378;2023-02-03T00:01:43;93956.63;;;2.51;79.05
52249;BME280;38541;48.130;8.378;2023-02-03T00:04:10;93960.56;;;2.47;79.17
52249;BME280;38541;48.130;8.378;2023-02-03T00:06:36;93958.34;;;2.44;78.78
52249;BME280;38541;48.130;8.378;2023-02-03T00:09:03;93964.25;;;2.53;79.72
52249;BME280;38541;48.130;8.378;2023-02-03T00:11:30;93955.09;;;2.57;79.40
52249;BME280;38541;48.130;8.378;2023-02-03T00:13:57;93965.84;;;2.54;79.48
52249;BME280;38541;48.130;8.378;2023-02-03T00:16:23;93958.34;;;2.44;79.10
52249;BME280;38541;48.130;8.378;2023-02-03T00:18:49;93968.09;;;2.42;79.41
52249;BME280;38541;48.130;8.378;2023-02-03T00:21:16;93962.19;;;2.48;79.30
52249;BME280;38541;48.130;8.378;2023-02-03T00:23:43;93962.91;;;2.42;79.62
52249;BME280;38541;48.130;8.378;2023-02-03T00:26:11;93962.53;;;2.45;79.29
52249;BME280;38541;48.130;8.378;2023-02-03T00:28:40;93957.34;;;2.45;79.53
52249;BME280;38541;48.130;8.378;2023-02-03T00:31:14;93958.97;;;2.46;79.88
52249;BME280;38541;48.130;8.378;2023-02-03T00:33:41;93960.81;;;2.52;79.49
52249;BME280;38541;48.130;8.378;2023-02-03T00:36:08;93956.16;;;2.63;79.57
52249;BME280;38541;48.130;8.378;2023-02-03T00:38:34;93962.34;;;2.62;78.91
52249;BME280;38541;48.130;8.378;2023-02-03T00:41:01;93970.31;;;2.45;78.69
52249;BME280;38541;48.130;8.378;2023-02-03T00:43:27;93967.19;;;2.35;79.47
52249;BME280;38541;48.130;8.378;2023-02-03T00:45:54;93968.19;;;2.34;79.22
52249;BME280;38541;48.130;8.378;2023-02-03T00:48:20;93965.59;;;2.34;79.89
52249;BME280;38541;48.130;8.378;2023-02-03T00:50:47;93975.25;;;2.40;79.54
52249;BME280;38541;48.130;8.378;2023-02-03T00:53:13;93973.66;;;2.39;79.71
52249;BME280;38541;48.130;8.378;2023-02-03T00:55:41;93978.84;;;2.39;79.53
52249;BME280;38541;48.130;8.378;2023-02-03T00:58:08;93987.69;;;2.30;79.67
52249;BME280;38541;48.130;8.378;2023-02-03T01:00:36;93995.81;;;2.26;79.70
52249;BME280;38541;48.130;8.378;2023-02-03T01:03:03;94001.00;;;2.26;80.40
52249;BME280;38541;48.130;8.378;2023-02-03T01:05:29;93988.06;;;2.11;81.10
52249;BME280;38541;48.130;8.378;2023-02-03T01:07:57;93976.25;;;2.09;81.47
52249;BME280;38541;48.130;8.378;2023-02-03T01:10:25;93971.78;;;2.03;81.88
52249;BME280;38541;48.130;8.378;2023-02-03T01:12:52;93967.56;;;2.02;81.70
52249;BME280;38541;48.130;8.378;2023-02-03T01:15:19;93967.91;;;1.98;81.69
52249;BME280;38541;48.130;8.378;2023-02-03T01:17:45;93975.97;;;2.04;81.76
52249;BME280;38541;48.130;8.378;2023-02-03T01:20:12;93971.50;;;1.97;81.74
52249;BME280;38541;48.130;8.378;2023-02-03T01:22:39;93970.78;;;2.04;81.63
52249;BME280;38541;48.130;8.378;2023-02-03T01:25:06;93964.16;;;2.01;81.82
52249;BME280;38541;48.130;8.378;2023-02-03T01:27:33;93966.75;;;2.01;82.16
52249;BME280;38541;48.130;8.378;2023-02-03T01:30:00;93984.13;;;2.01;82.05
52249;BME280;38541;48.130;8.378;2023-02-03T01:32:26;93979.56;;;2.03;81.68
52249;BME280;38541;48.130;8.378;2023-02-03T01:34:53;93979.56;;;2.03;81.65
52249;BME280;38541;48.130;8.378;2023-02-03T01:37:20;93975.63;;;2.07;82.04
52249;BME280;38541;48.130;8.378;2023-02-03T01:39:46;93975.25;;;2.10;81.42
52249;BME280;38541;48.130;8.378;2023-02-03T01:42:13;93985.25;;;2.13;82.17
52249;BME280;38541;48.130;8.378;2023-02-03T01:44:48;93985.56;;;2.18;81.84
52249;BME280;38541;48.130;8.378;2023-02-03T01:47:35;93966.47;;;2.26;81.20
52249;BME280;38541;48.130;8.378;2023-02-03T01:50:25;93971.50;;;2.27;80.87
52249;BME280;38541;48.130;8.378;2023-02-03T01:53:01;93976.69;;;2.27;81.03
52249;BME280;38541;48.130;8.378;2023-02-03T01:55:33;93974.72;;;2.30;81.24
52249;BME280;38541;48.130;8.378;2023-02-03T01:58:09;93958.81;;;2.18;81.18
52249;BME280;38541;48.130;8.378;2023-02-03T02:00:38;93952.38;;;2.13;81.26
52249;BME280;38541;48.130;8.378;2023-02-03T02:03:05;93938.72;;;2.05;82.25
52249;BME280;38541;48.130;8.378;2023-02-03T02:05:42;93936.38;;;1.95;81.97
52249;BME280;38541;48.130;8.378;2023-02-03T02:08:11;93930.47;;;1.86;82.54
52249;BME280;38541;48.130;8.378;2023-02-03T02:10:39;93925.09;;;1.88;83.29
52249;BME280;38541;48.130;8.378;2023-02-03T02:13:06;93925.31;;;1.86;83.17
52249;BME280;38541;48.130;8.378;2023-02-03T02:15:53;93915.09;;;1.84;82.96
52249;BME280;38541;48.130;8.378;2023-02-03T02:21:37;93911.63;;;1.92;83.09
52249;BME280;38541;48.130;8.378;2023-02-03T02:30:09;93916.63;;;1.79;82.95
52249;BME280;38541;48.130;8.378;2023-02-03T02:32:55;93948.53;;;1.79;83.17
52249;BME280;38541;48.130;8.378;2023-02-03T02:35:41;93945.75;;;1.81;84.04
52249;BME280;38541;48.130;8.378;2023-02-03T02:40:48;93950.59;;;1.84;83.73
52249;BME280;38541;48.130;8.378;2023-02-03T02:43:26;93953.88;;;1.78;83.68
52249;BME280;38541;48.130;8.378;2023-02-03T02:46:02;93950.22;;;1.87;83.37
52249;BME280;38541;48.130;8.378;2023-02-03T02:48:37;93937.91;;;1.89;83.40
52249;BME280;38541;48.130;8.378;2023-02-03T02:51:08;93912.16;;;2.03;83.64
52249;BME280;38541;48.130;8.378;2023-02-03T02:53:43;93902.88;;;1.93;83.05
52249;BME280;38541;48.130;8.378;2023-02-03T02:56:12;93901.50;;;1.97;83.36
52249;BME280;38541;48.130;8.378;2023-02-03T02:58:43;93891.06;;;2.06;83.17
52249;BME280;38541;48.130;8.378;2023-02-03T03:01:12;93886.66;;;2.06;83.08
52249;BME280;38541;48.130;8.378;2023-02-03T03:03:41;93867.66;;;1.99;83.16
52249;BME280;38541;48.130;8.378;2023-02-03T03:06:37;93861.31;;;2.02;83.45
52249;BME280;38541;48.130;8.378;2023-02-03T03:09:15;93887.84;;;2.04;82.95
52249;BME280;38541;48.130;8.378;2023-02-03T03:11:47;93899.81;;;2.05;82.98
52249;BME280;38541;48.130;8.378;2023-02-03T03:14:18;93895.88;;;2.09;83.03
52249;BME280;38541;48.130;8.378;2023-02-03T03:16:52;93901.06;;;2.09;82.26
52249;BME280;38541;48.130;8.378;2023-02-03T03:19:23;93906.78;;;2.19;82.66
52249;BME280;38541;48.130;8.378;2023-02-03T03:21:54;93910.50;;;2.32;82.31
52249;BME280;38541;48.130;8.378;2023-02-03T03:24:26;93923.09;;;2.35;81.71
52249;BME280;38541;48.130;8.378;2023-02-03T03:29:34;93895.84;;;2.39;82.22
52249;BME280;38541;48.130;8.378;2023-02-03T03:32:02;93894.28;;;2.45;81.44
52249;BME280;38541;48.130;8.378;2023-02-03T03:34:30;93884.75;;;2.45;81.06
52249;BME280;38541;48.130;8.378;2023-02-03T03:42:19;93872.13;;;2.42;81.50
52249;BME280;38541;48.130;8.378;2023-02-03T03:44:53;93889.06;;;2.38;81.22
52249;BME280;38541;48.130;8.378;2023-02-03T03:47:38;93904.88;;;2.43;81.22
52249;BME280;38541;48.130;8.378;2023-02-03T03:50:10;93902.81;;;2.38;81.13
52249;BME280;38541;48.130;8.378;2023-02-03T03:52:41;93905.94;;;2.34;81.39
52249;BME280;38541;48.130;8.378;2023-02-03T03:55:11;93908.13;;;2.30;80.71
52249;BME280;38541;48.130;8.378;2023-02-03T03:57:59;93903.81;;;2.37;81.37
52249;BME280;38541;48.130;8.378;2023-02-03T04:00:30;93899.97;;;2.33;80.66
52249;BME280;38541;48.130;8.378;2023-02-03T04:03:01;93882.22;;;2.37;81.10
52249;BME280;38541;48.130;8.378;2023-02-03T04:05:31;93875.72;;;2.41;80.88
52249;BME280;38541;48.130;8.378;2023-02-03T04:07:58;93873.50;;;2.38;80.96
52249;BME280;38541;48.130;8.378;2023-02-03T04:10:33;93881.91;;;2.40;81.01
52249;BME280;38541;48.130;8.378;2023-02-03T04:13:00;93893.97;;;2.33;80.68
52249;BME280;38541;48.130;8.378;2023-02-03T04:15:27;93889.69;;;2.40;81.19
52249;BME280;38541;48.130;8.378;2023-02-03T04:17:53;93918.53;;;2.37;80.58
52249;BME280;38541;48.130;8.378;2023-02-03T04:20:23;93909.63;;;2.24;80.63
52249;BME280;38541;48.130;8.378;2023-02-03T04:22:50;93911.88;;;2.27;80.50
52249;BME280;38541;48.130;8.378;2023-02-03T04:25:17;93908.91;;;2.31;80.46
52249;BME280;38541;48.130;8.378;2023-02-03T04:27:43;93902.94;;;2.30;80.86
52249;BME280;38541;48.130;8.378;2023-02-03T04:30:11;93907.56;;;2.35;81.02
52249;BME280;38541;48.130;8.378;2023-02-03T04:32:38;93912.47;;;2.30;80.95
52249;BME280;38541;48.130;8.378;2023-02-03T04:35:05;93912.59;;;2.21;80.64
52249;BME280;38541;48.130;8.378;2023-02-03T04:37:32;93913.59;;;2.20;80.97
52249;BME280;38541;48.130;8.378;2023-02-03T04:39:59;93919.66;;;2.27;80.71
52249;BME280;38541;48.130;8.378;2023-02-03T04:42:25;93909.63;;;2.24;80.52
52249;BME280;38541;48.130;8.378;2023-02-03T04:44:52;93911.25;;;2.25;80.93
52249;BME280;38541;48.130;8.378;2023-02-03T04:47:19;93914.63;;;2.26;80.65
52249;BME280;38541;48.130;8.378;2023-02-03T04:49:46;93908.72;;;2.17;80.91
52249;BME280;38541;48.130;8.378;2023-02-03T04:52:14;93911.53;;;2.16;80.66
52249;BME280;38541;48.130;8.378;2023-02-03T04:54:40;93900.34;;;2.15;80.80
52249;BME280;38541;48.130;8.378;2023-02-03T04:57:07;93908.41;;;2.20;81.05
52249;BME280;38541;48.130;8.378;2023-02-03T04:59:33;93904.81;;;2.21;80.71
52249;BME280;38541;48.130;8.378;2023-02-03T05:02:03;93906.50;;;2.14;80.44
52249;BME280;38541;48.130;8.378;2023-02-03T05:04:30;93912.50;;;2.14;80.79
52249;BME280;38541;48.130;8.378;2023-02-03T05:06:57;93915.56;;;2.18;80.61
52249;BME280;38541;48.130;8.378;2023-02-03T05:09:24;93917.16;;;2.19;80.16
52249;BME280;38541;48.130;8.378;2023-02-03T05:11:52;93913.84;;;2.25;80.15
52249;BME280;38541;48.130;8.378;2023-02-03T05:14:19;93898.03;;;2.20;79.93
52249;BME280;38541;48.130;8.378;2023-02-03T05:16:46;93877.34;;;2.27;79.96
52249;BME280;38541;48.130;8.378;2023-02-03T05:19:13;93859.31;;;2.19;79.66
52249;BME280;38541;48.130;8.378;2023-02-03T05:21:39;93874.31;;;2.23;80.06
52249;BME280;38541;48.130;8.378;2023-02-03T05:24:06;93860.47;;;2.16;80.31
52249;BME280;38541;48.130;8.378;2023-02-03T05:26:36;93847.50;;;2.16;79.92
52249;BME280;38541;48.130;8.378;2023-02-03T05:29:02;93877.00;;;2.15;79.95
52249;BME280;38541;48.130;8.378;2023-02-03T05:31:29;93882.75;;;2.10;80.54
52249;BME280;38541;48.130;8.378;2023-02-03T05:33:55;93879.44;;;2.17;79.75
52249;BME280;38541;48.130;8.378;2023-02-03T05:36:22;93886.38;;;2.16;80.01
52249;BME280;38541;48.130;8.378;2023-02-03T05:38:48;93887.94;;;2.10;80.35
52249;BME280;38541;48.130;8.378;2023-02-03T05:41:15;93889.47;;;2.05;80.63
52249;BME280;38541;48.130;8.378;2023-02-03T05:44:00;93888.84;;;2.03;81.05
52249;BME280;38541;48.130;8.378;2023-02-03T05:46:26;93894.44;;;2.06;80.57
52249;BME280;38541;48.130;8.378;2023-02-03T05:48:53;93902.16;;;1.99;80.93
52249;BME280;38541;48.130;8.378;2023-02-03T05:51:19;93902.06;;;2.08;81.10
52249;BME280;38541;48.130;8.378;2023-02-03T05:53:46;93910.63;;;2.08;80.26
52249;BME280;38541;48.130;8.378;2023-02-03T05:56:13;93917.34;;;2.03;80.12
52249;BME280;38541;48.130;8.378;2023-02-03T05:58:39;93916.44;;;1.95;79.71
52249;BME280;38541;48.130;8.378;2023-02-03T06:01:05;93912.06;;;1.96;80.71
52249;BME280;38541;48.130;8.378;2023-02-03T06:03:32;93916.44;;;1.95;80.74
52249;BME280;38541;48.130;8.378;2023-02-03T06:05:58;93933.44;;;1.98;80.40
52249;BME280;38541;48.130;8.378;2023-02-03T06:08:25;93935.66;;;2.01;80.60
52249;BME280;38541;48.130;8.378;2023-02-03T06:10:58;93955.50;;;2.09;80.25
52249;BME280;38541;48.130;8.378;2023-02-03T06:13:27;93953.72;;;2.09;80.66
52249;BME280;38541;48.130;8.378;2023-02-03T06:15:53;93956.94;;;2.11;81.16
52249;BME280;38541;48.130;8.378;2023-02-03T06:18:20;93957.72;;;2.12;81.06
52249;BME280;38541;48.130;8.378;2023-02-03T06:20:47;93974.63;;;2.08;81.22
52249;BME280;38541;48.130;8.378;2023-02-03T06:23:13;93977.47;;;2.13;81.50
52249;BME280;38541;48.130;8.378;2023-02-03T06:25:42;93968.09;;;2.12;81.55
52249;BME280;38541;48.130;8.378;2023-02-03T06:28:08;93981.31;;;2.02;81.68
52249;BME280;38541;48.130;8.378;2023-02-03T06:30:35;93968.19;;;2.04;82.01
52249;BME280;38541;48.130;8.378;2023-02-03T06:33:02;93950.41;;;2.01;82.10
52249;BME280;38541;48.130;8.378;2023-02-03T06:35:28;93971.06;;;1.94;82.69
52249;BME280;38541;48.130;8.378;2023-02-03T06:37:55;93960.50;;;1.95;82.73
52249;BME280;38541;48.130;8.378;2023-02-03T06:40:21;93959.50;;;1.96;82.57
52249;BME280;38541;48.130;8.378;2023-02-03T06:42:48;93964.69;;;1.96;82.71
52249;BME280;38541;48.130;8.378;2023-02-03T06:45:16;93955.06;;;1.90;82.89
52249;BME280;38541;48.130;8.378;2023-02-03T06:47:44;93944.69;;;1.90;82.66
52249;BME280;38541;48.130;8.378;2023-02-03T06:50:13;93954.59;;;1.87;82.53
52249;BME280;38541;48.130;8.378;2023-02-03T06:52:40;93937.28;;;1.87;83.17
52249;BME280;38541;48.130;8.378;2023-02-03T06:55:07;93946.66;;;1.88;82.86
52249;BME280;38541;48.130;8.378;2023-02-03T06:57:33;93946.03;;;1.86;82.82
52249;BME280;38541;48.130;8.378;2023-02-03T07:00:00;93928.16;;;1.91;82.94
52249;BME280;38541;48.130;8.378;2023-02-03T07:02:26;93917.44;;;1.94;82.58
52249;BME280;38541;48.130;8.378;2023-02-03T07:04:53;93903.22;;;1.90;82.29
52249;BME280;38541;48.130;8.378;2023-02-03T07:07:19;93917.25;;;1.81;82.68
52249;BME280;38541;48.130;8.378;2023-02-03T07:09:45;93906.44;;;1.77;83.43
52249;BME280;38541;48.130;8.378;2023-02-03T07:12:12;93904.38;;;1.73;83.53
52249;BME280;38541;48.130;8.378;2023-02-03T07:14:38;93902.41;;;1.75;83.35
52249;BME280;38541;48.130;8.378;2023-02-03T07:17:05;93893.94;;;1.81;83.48
52249;BME280;38541;48.130;8.378;2023-02-03T07:19:32;93888.75;;;1.81;83.11
52249;BME280;38541;48.130;8.378;2023-02-03T07:21:58;93886.69;;;1.76;83.25
52249;BME280;38541;48.130;8.378;2023-02-03T07:24:25;93884.91;;;1.77;82.78
52249;BME280;38541;48.130;8.378;2023-02-03T07:26:52;93893.28;;;1.79;83.50
52249;BME280;38541;48.130;8.378;2023-02-03T07:29:18;93907.69;;;1.81;82.95
52249;BME280;38541;48.130;8.378;2023-02-03T07:31:44;93918.22;;;1.80;83.35
52249;BME280;38541;48.130;8.378;2023-02-03T07:34:11;93906.44;;;1.92;83.07
52249;BME280;38541;48.130;8.378;2023-02-03T07:36:38;93908.59;;;2.04;82.91
52249;BME280;38541;48.130;8.378;2023-02-03T07:39:04;93922.78;;;2.08;81.99
52249;BME280;38541;48.130;8.378;2023-02-03T07:41:31;93924.66;;;2.14;81.83
52249;BME280;38541;48.130;8.378;2023-02-03T07:43:57;93922.41;;;2.26;81.67
52249;BME280;38541;48.130;8.378;2023-02-03T07:46:24;93921.88;;;2.31;81.98
52249;BME280;38541;48.130;8.378;2023-02-03T07:48:50;93918.19;;;2.40;80.86
52249;BME280;38541;48.130;8.378;2023-02-03T07:51:17;93908.63;;;2.40;80.43
52249;BME280;38541;48.130;8.378;2023-02-03T07:53:44;93929.81;;;2.44;80.61
52249;BME280;38541;48.130;8.378;2023-02-03T07:56:11;93913.31;;;2.30;80.64
52249;BME280;38541;48.130;8.378;2023-02-03T07:58:37;93904.16;;;2.34;81.14
52249;BME280;38541;48.130;8.378;2023-02-03T08:01:13;93913.34;;;2.37;80.37
52249;BME280;38541;48.130;8.378;2023-02-03T08:03:40;93910.06;;;2.43;80.97
52249;BME280;38541;48.130;8.378;2023-02-03T08:06:07;93903.97;;;2.36;80.86
52249;BME280;38541;48.130;8.378;2023-02-03T08:08:34;93914.63;;;2.41;81.38
52249;BME280;38541;48.130;8.378;2023-02-03T08:11:01;93923.38;;;2.40;81.03
52249;BME280;38541;48.130;8.378;2023-02-03T08:13:27;93922.56;;;2.39;81.21
52249;BME280;38541;48.130;8.378;2023-02-03T08:15:54;93928.91;;;2.52;81.21
52249;BME280;38541;48.130;8.378;2023-02-03T08:18:20;93928.47;;;2.48;80.95
52249;BME280;38541;48.130;8.378;2023-02-03T08:20:48;93927.03;;;2.46;81.04
52249;BME280;38541;48.130;8.378;2023-02-03T08:23:14;93915.13;;;2.51;80.83
52249;BME280;38541;48.130;8.378;2023-02-03T08:25:41;93911.53;;;2.52;81.12
52249;BME280;38541;48.130;8.378;2023-02-03T08:28:08;93929.78;;;2.59;80.64
52249;BME280;38541;48.130;8.378;2023-02-03T08:30:34;93930.69;;;2.51;81.16
52249;BME280;38541;48.130;8.378;2023-02-03T08:33:01;93941.06;;;2.51;81.56
52249;BME280;38541;48.130;8.378;2023-02-03T08:35:27;93948.38;;;2.63;81.25
52249;BME280;38541;48.130;8.378;2023-02-03T08:37:54;93936.50;;;2.53;80.73
52249;BME280;38541;48.130;8.378;2023-02-03T08:40:20;93944.81;;;2.64;81.11
52249;BME280;38541;48.130;8.378;2023-02-03T08:42:48;93940.84;;;2.68;80.66
52249;BME280;38541;48.130;8.378;2023-02-03T08:45:14;93941.09;;;2.73;80.96
52249;BME280;38541;48.130;8.378;2023-02-03T08:47:41;93953.59;;;2.84;80.23
52249;BME280;38541;48.130;8.378;2023-02-03T08:50:08;93954.34;;;2.78;80.15
52249;BME280;38541;48.130;8.378;2023-02-03T08:52:35;93968.34;;;2.99;80.02
52249;BME280;38541;48.130;8.378;2023-02-03T08:55:02;93962.78;;;3.02;79.43
52249;BME280;38541;48.130;8.378;2023-02-03T08:57:33;93956.84;;;3.08;79.63
52249;BME280;38541;48.130;8.378;2023-02-03T09:00:00;93955.97;;;3.23;79.72
52249;BME280;38541;48.130;8.378;2023-02-03T09:02:26;93946.94;;;2.97;78.41
52249;BME280;38541;48.130;8.378;2023-02-03T09:04:53;93957.22;;;3.05;79.69
52249;BME280;38541;48.130;8.378;2023-02-03T09:07:19;93951.03;;;3.06;78.58
52249;BME280;38541;48.130;8.378;2023-02-03T09:09:46;93958.81;;;3.06;78.30
52249;BME280;38541;48.130;8.378;2023-02-03T09:12:12;93962.59;;;3.25;78.72
52249;BME280;38541;48.130;8.378;2023-02-03T09:14:39;93972.06;;;3.33;78.09
52249;BME280;38541;48.130;8.378;2023-02-03T09:17:06;93979.09;;;3.39;78.14
52249;BME280;38541;48.130;8.378;2023-02-03T09:19:35;93991.47;;;3.37;77.07
52249;BME280;38541;48.130;8.378;2023-02-03T09:22:02;93997.28;;;3.39;77.72
52249;BME280;38541;48.130;8.378;2023-02-03T09:24:29;94007.06;;;3.37;77.48
52249;BME280;38541;48.130;8.378;2023-02-03T09:26:56;93995.91;;;3.22;77.96
52249;BME280;38541;48.130;8.378;2023-02-03T09:29:22;93992.41;;;3.30;78.18
52249;BME280;38541;48.130;8.378;2023-02-03T09:31:49;93988.97;;;3.29;77.77
52249;BME280;38541;48.130;8.378;2023-02-03T09:34:18;93983.38;;;3.25;77.85
52249;BME280;38541;48.130;8.378;2023-02-03T09:36:46;94007.06;;;3.37;78.13
52249;BME280;38541;48.130;8.378;2023-02-03T09:39:13;93990.59;;;3.30;78.03
52249;BME280;38541;48.130;8.378;2023-02-03T09:47:28;93989.34;;;3.48;77.75
52249;BME280;38541;48.130;8.378;2023-02-03T09:49:59;93984.28;;;3.61;77.22
52249;BME280;38541;48.130;8.378;2023-02-03T09:52:30;93988.00;;;3.52;77.33
52249;BME280;38541;48.130;8.378;2023-02-03T09:55:03;93990.59;;;3.74;77.53
52249;BME280;38541;48.130;8.378;2023-02-03T09:57:36;93991.81;;;3.78;77.23
52249;BME280;38541;48.130;8.378;2023-02-03T10:00:21;93981.13;;;3.94;77.16
52249;BME280;38541;48.130;8.378;2023-02-03T10:02:52;93982.44;;;4.12;76.80
52249;BME280;38541;48.130;8.378;2023-02-03T10:06:01;93988.03;;;4.09;74.99
52249;BME280;38541;48.130;8.378;2023-02-03T10:09:00;94004.03;;;4.12;75.71
52249;BME280;38541;48.130;8.378;2023-02-03T10:11:52;94005.84;;;4.12;74.39
52249;BME280;38541;48.130;8.378;2023-02-03T10:17:40;93983.28;;;4.19;75.69
52249;BME280;38541;48.130;8.378;2023-02-03T10:22:58;93981.44;;;4.13;73.96
52249;BME280;38541;48.130;8.378;2023-02-03T10:25:34;93978.91;;;3.91;75.51
52249;BME280;38541;48.130;8.378;2023-02-03T10:28:12;93973.72;;;3.69;75.89
52249;BME280;38541;48.130;8.378;2023-02-03T10:30:44;93971.78;;;3.71;75.84
52249;BME280;38541;48.130;8.378;2023-02-03T10:33:17;93972.00;;;3.77;75.75
52249;BME280;38541;48.130;8.378;2023-02-03T10:38:38;93967.69;;;3.62;76.33
52249;BME280;38541;48.130;8.378;2023-02-03T10:41:06;93961.91;;;3.38;76.52
52249;BME280;38541;48.130;8.378;2023-02-03T10:43:32;93973.41;;;3.29;76.48
52249;BME280;38541;48.130;8.378;2023-02-03T10:46:26;93962.41;;;3.27;77.36
52249;BME280;38541;48.130;8.378;2023-02-03T10:48:53;93952.81;;;3.27;77.79
52249;BME280;38541;48.130;8.378;2023-02-03T10:51:22;93948.22;;;3.51;77.28
52249;BME280;38541;48.130;8.378;2023-02-03T10:53:49;93949.00;;;3.74;76.84
52249;BME280;38541;48.130;8.378;2023-02-03T10:56:22;93956.53;;;3.68;76.31
52249;BME280;38541;48.130;8.378;2023-02-03T10:58:53;93956.63;;;3.82;76.24
52249;BME280;38541;48.130;8.378;2023-02-03T11:01:25;93953.91;;;3.90;75.51
52249;BME280;38541;48.130;8.378;2023-02-03T11:03:57;93950.81;;;4.08;76.76
52249;BME280;38541;48.130;8.378;2023-02-03T11:06:25;93960.78;;;4.40;73.90
52249;BME280;38541;48.130;8.378;2023-02-03T11:08:52;93959.63;;;4.49;73.33
52249;BME280;38541;48.130;8.378;2023-02-03T11:16:31;94011.13;;;4.61;71.82
52249;BME280;38541;48.130;8.378;2023-02-03T11:19:19;93979.84;;;4.47;72.94
52249;BME280;38541;48.130;8.378;2023-02-03T11:21:51;93990.84;;;4.49;72.90
52249;BME280;38541;48.130;8.378;2023-02-03T11:26:49;93973.06;;;4.60;73.44
52249;BME280;38541;48.130;8.378;2023-02-03T11:29:20;93952.88;;;4.68;73.10
52249;BME280;38541;48.130;8.378;2023-02-03T11:31:51;93962.63;;;4.46;72.78
52249;BME280;38541;48.130;8.378;2023-02-03T11:34:23;93973.47;;;4.21;73.05
52249;BME280;38541;48.130;8.378;2023-02-03T11:36:51;93961.69;;;4.25;73.72
52249;BME280;38541;48.130;8.378;2023-02-03T11:39:26;93959.78;;;4.41;73.84
52249;BME280;38541;48.130;8.378;2023-02-03T11:41:53;93952.28;;;4.24;73.95
52249;BME280;38541;48.130;8.378;2023-02-03T11:44:24;93944.69;;;4.23;74.92
52249;BME280;38541;48.130;8.378;2023-02-03T11:46:58;93950.38;;;3.98;74.11
52249;BME280;38541;48.130;8.378;2023-02-03T11:49:42;93931.91;;;3.93;75.63
52249;BME280;38541;48.130;8.378;2023-02-03T11:52:25;93938.91;;;3.92;76.14
52249;BME280;38541;48.130;8.378;2023-02-03T11:57:52;93952.56;;;4.36;73.63
52249;BME280;38541;48.130;8.378;2023-02-03T12:00:41;93929.16;;;4.43;73.53
52249;BME280;38541;48.130;8.378;2023-02-03T12:06:12;93911.72;;;4.37;74.13
52249;BME280;38541;48.130;8.378;2023-02-03T12:08:56;93912.50;;;4.31;74.07
52249;BME280;38541;48.130;8.378;2023-02-03T12:14:19;93907.63;;;4.14;74.61
52249;BME280;38541;48.130;8.378;2023-02-03T12:17:09;93913.19;;;4.04;74.38
52249;BME280;38541;48.130;8.378;2023-02-03T12:20:01;93916.56;;;3.98;74.55
52249;BME280;38541;48.130;8.378;2023-02-03T12:25:53;93893.41;;;4.65;73.79
52249;BME280;38541;48.130;8.378;2023-02-03T12:35:10;93897.19;;;4.07;73.33
52249;BME280;38541;48.130;8.378;2023-02-03T12:37:35;93898.75;;;4.02;75.26
52249;BME280;38541;48.130;8.378;2023-02-03T12:42:50;93900.56;;;4.01;75.74
52249;BME280;38541;48.130;8.378;2023-02-03T12:45:39;93888.56;;;4.07;74.84
52249;BME280;38541;48.130;8.378;2023-02-03T12:48:13;93891.63;;;4.17;73.67
52249;BME280;38541;48.130;8.378;2023-02-03T12:50:55;93899.38;;;4.04;73.81
52249;BME280;38541;48.130;8.378;2023-02-03T12:53:32;93877.13;;;3.94;73.44
52249;BME280;38541;48.130;8.378;2023-02-03T12:56:05;93871.97;;;4.01;74.42
52249;BME280;38541;48.130;8.378;2023-02-03T12:58:36;93867.03;;;3.78;73.50
52249;BME280;38541;48.130;8.378;2023-02-03T13:01:19;93868.03;;;3.77;73.94
52249;BME280;38541;48.130;8.378;2023-02-03T13:06:39;93869.47;;;3.79;75.06
52249;BME280;38541;48.130;8.378;2023-02-03T13:09:24;93877.75;;;3.96;75.74
52249;BME280;38541;48.130;8.378;2023-02-03T13:12:04;93875.06;;;3.83;74.06
52249;BME280;38541;48.130;8.378;2023-02-03T13:14:48;93882.13;;;3.89;73.63
52249;BME280;38541;48.130;8.378;2023-02-03T13:17:30;93869.13;;;3.89;73.48
52249;BME280;38541;48.130;8.378;2023-02-03T13:20:04;93865.56;;;4.04;73.26
52249;BME280;38541;48.130;8.378;2023-02-03T13:22:32;93873.50;;;3.89;72.84
52249;BME280;38541;48.130;8.378;2023-02-03T13:39:52;93876.56;;;4.06;72.75
52249;BME280;38541;48.130;8.378;2023-02-03T13:42:24;93887.97;;;4.05;73.05
52249;BME280;38541;48.130;8.378;2023-02-03T13:44:57;93885.75;;;4.02;72.92
52249;BME280;38541;48.130;8.378;2023-02-03T13:47:29;93893.16;;;4.05;73.21
52249;BME280;38541;48.130;8.378;2023-02-03T13:50:15;93871.25;;;4.21;72.52
52249;BME280;38541;48.130;8.378;2023-02-03T13:52:47;93881.81;;;4.12;72.42
52249;BME280;38541;48.130;8.378;2023-02-03T13:55:33;93887.25;;;4.18;72.39
52249;BME280;38541;48.130;8.378;2023-02-03T13:58:02;93884.25;;;4.21;72.52
52249;BME280;38541;48.130;8.378;2023-02-03T14:03:39;93882.72;;;3.91;73.33
52249;BME280;38541;48.130;8.378;2023-02-03T14:06:53;93904.22;;;3.78;73.19
52249;BME280;38541;48.130;8.378;2023-02-03T14:08:58;93887.97;;;3.98;73.59
52249;BME280;38541;48.130;8.378;2023-02-03T14:16:47;93870.09;;;3.53;74.06
52249;BME280;38541;48.130;8.378;2023-02-03T14:22:05;93861.50;;;3.52;74.88
52249;BME280;38541;48.130;8.378;2023-02-03T14:24:35;93858.47;;;3.49;75.01
52249;BME280;38541;48.130;8.378;2023-02-03T14:27:07;93856.06;;;3.47;74.95
52249;BME280;38541;48.130;8.378;2023-02-03T14:29:41;93876.03;;;3.47;75.26
52249;BME280;38541;48.130;8.378;2023-02-03T14:32:10;93870.88;;;3.53;74.94
52249;BME280;38541;48.130;8.378;2023-02-03T14:34:47;93847.88;;;3.50;75.19
52249;BME280;38541;48.130;8.378;2023-02-03T14:37:16;93859.31;;;3.56;75.20
52249;BME280;38541;48.130;8.378;2023-02-03T14:40:08;93872.97;;;3.65;74.92
52249;BME280;38541;48.130;8.378;2023-02-03T14:43:01;93864.13;;;3.59;74.70
52249;BME280;38541;48.130;8.378;2023-02-03T14:46:01;93834.81;;;3.37;75.44
52249;BME280;38541;48.130;8.378;2023-02-03T14:51:23;93853.84;;;3.44;75.21
52249;BME280;38541;48.130;8.378;2023-02-03T14:56:45;93841.56;;;3.31;75.80
52249;BME280;38541;48.130;8.378;2023-02-03T14:59:42;93821.59;;;3.32;76.01
52249;BME280;38541;48.130;8.378;2023-02-03T15:02:14;93838.34;;;3.29;75.91
52249;BME280;38541;48.130;8.378;2023-02-03T15:04:42;93833.91;;;3.23;76.33
52249;BME280;38541;48.130;8.378;2023-02-03T15:09:59;93841.72;;;3.23;76.23